San Antonio, Valles Caldera, New Mexico Weather observations

Data are for 10 minute period ending at time listed.
 Day   Time   Solar   Ave.   Ave.  Ave.  Vector  Max.   Baro.   Total    
  of    of     Rad.   Air    Rel.  Wind   Wind   Wind  Press.  Precip.   
Year   Day            Temp.  Hum.  Speed  Dir.   Gust                    
2017   (MST)  Kw/m2    F      %     mph   deg.    mph    mb.     in.     
-------------------------------------------------------------------------
 292   22:30   0.00   39.1    77    1.6   346     3.6   745.1    0.00 
 292   22:40   0.00   37.7    79    1.7   353     4.2   745.1    0.00 
 292   22:50   0.00   37.0    81    0.9    55     2.4   745.2    0.00 
 292   23:00   0.00   36.8    81    1.5   248     3.6   745.1    0.00 
 292   23:10   0.00   35.2    83    2.4   116     4.2   745.1    0.00 
 292   23:20   0.00   35.5    86    3.1    23     5.4   745.0    0.00 
 292   23:30   0.00   35.6    84    2.8    66     4.8   745.0    0.00 
 292   23:40   0.00   35.1    86    2.2    13     5.4   745.0    0.00 
 292   23:50   0.00   35.7    85    0.5    42     1.8   744.8    0.00 
 293    0:00   0.00   35.9    84    0.9   117     3.0   744.8    0.00 
 293    0:10   0.00   35.7    85    0.5   275     2.4   744.7    0.00 
 293    0:20   0.00   35.8    85    1.1    22     4.2   744.6    0.00 
 293    0:30   0.00   36.0    85    1.3     8     3.0   744.6    0.00 
 293    0:40   0.00   35.8    84    1.0   312     3.0   744.6    0.00 
 293    0:50   0.00   35.9    84    0.7   265     3.6   744.5    0.00 
 293    1:00   0.00   35.1    85    1.2    20     3.0   744.6    0.00 
 293    1:10   0.00   35.2    86    1.3   305     4.2   744.5    0.00 
 293    1:20   0.00   35.3    86    0.6   200     2.4   744.5    0.00 
 293    1:30   0.00   35.0    87    0.0     0     0.0   744.4    0.00 
 293    1:40   0.00   35.3    86    0.0     0     0.0   744.3    0.00 
 293    1:50   0.00   35.3    86    0.0     0     0.0   744.3    0.00 
 293    2:00   0.00   35.4    86    0.0     0     0.0   744.2    0.00 
 293    2:10   0.00   35.5    86    0.0     0     0.0   744.1    0.00 
 293    2:20   0.00   35.7    87    1.5   124     4.2   743.9    0.00 
 293    2:30   0.00   35.7    88    2.6    20     4.8   743.8    0.00 
 293    2:40   0.00   36.2    89    2.3   326     4.2   743.7    0.00 
 293    2:50   0.00   35.4    87    1.8   104     4.2   743.6    0.00 
 293    3:00   0.00   34.5    89    1.6   336     3.6   743.5    0.00 
 293    3:10   0.00   33.9    90    0.4   355     3.0   743.6    0.00 
 293    3:20   0.00   34.2    91    0.0     0     0.0   743.5    0.00 
 293    3:30   0.00   34.4    90    0.0     0     0.0   743.5    0.00 
 293    3:40   0.00   33.9    90    0.0     0     0.0   743.6    0.00 
 293    3:50   0.00   33.3    90    0.0     0     0.0   743.6    0.00 
 293    4:00   0.00   33.3    92    0.0     0     0.0   743.5    0.00 
 293    4:10   0.00   32.8    92    0.0     0     0.0   743.5    0.00 
 293    4:20   0.00   32.5    92    0.0     0     0.0   743.5    0.00 
 293    4:30   0.00   32.6    93    0.3   158     1.8   743.5    0.00 
 293    4:40   0.00   32.3    93    0.5     6     1.8   743.5    0.00 
 293    4:50   0.00   32.1    93    1.8    25     3.0   743.5    0.00 
 293    5:00   0.00   32.5    94    0.3    31     1.8   743.6    0.00 
 293    5:10   0.00   32.0    93    0.0     0     0.0   743.5    0.00 
 293    5:20   0.00   31.1    93    0.9   144     2.4   743.4    0.00 
 293    5:30   0.00   30.6    94    0.4     9     1.8   743.3    0.00 
 293    5:40   0.00   30.6    94    0.2     8     1.2   743.3    0.00 
 293    5:50   0.00   30.7    94    0.3    14     1.8   743.3    0.00 
 293    6:00   0.00   30.3    94    0.2   336     1.2   743.3    0.00 
 293    6:10   0.00   29.5    94    0.0     0     0.0   743.3    0.00 
 293    6:20   0.00   29.1    95    0.0     0     0.0   743.2    0.00 
 293    6:30   0.01   29.5    95    0.0    79     1.2   743.1    0.00 
 293    6:40   0.01   29.6    95    0.1   279     1.8   743.2    0.00 
 293    6:50   0.02   28.8    95    0.0    14     1.2   743.2    0.00 
 293    7:00   0.03   29.2    95    0.0     0     0.0   743.1    0.00 
 293    7:10   0.09   29.8    96    0.0     0     0.0   743.2    0.00 
 293    7:20   0.17   33.5    95    0.1    76     1.8   743.3    0.00 
 293    7:30   0.14   35.6    88    0.5   126     1.8   743.4    0.00 
 293    7:40   0.12   35.3    85    0.3    54     2.4   743.4    0.00 
 293    7:50   0.16   35.3    86    0.3   242     2.4   743.5    0.00 
 293    8:00   0.22   37.4    86    1.0   234     3.0   743.6    0.00 
 293    8:10   0.20   38.5    84    1.0   246     3.6   743.5    0.00 
 293    8:20   0.29   41.6    77    0.9   282     3.6   743.5    0.00 
 293    8:30   0.37   43.4    76    2.5   318     4.8   743.3    0.00 
 293    8:40   0.41   46.0    72    3.0   267     6.0   743.2    0.00 
 293    8:50   0.43   51.7    59    3.5   309     7.2   743.2    0.00 
 293    9:00   0.46   55.3    50    5.7   300     9.6   743.1    0.00 
 293    9:10   0.42   54.9    48    6.4   296    10.8   743.1    0.00 
 293    9:20   0.52   55.7    46    7.0   280    13.1   743.0    0.00 
 293    9:30   0.36   55.5    45    9.4   259    13.1   742.9    0.00 
 293    9:40   0.40   54.1    48    9.9   246    14.3   742.9    0.00 
 293    9:50   0.17   52.9    49   11.1   258    20.3   742.9    0.00 
 293   10:00   0.26   52.4    48   12.7   274    20.9   743.0    0.00 
 293   10:10   0.31   53.2    46   11.5   264    20.3   742.8    0.00 
 293   10:20   0.33   53.6    45   12.8   258    19.1   742.7    0.00 
 293   10:30   0.40   53.4    44   11.9   261    20.9   742.6    0.00 
 293   10:40   0.68   55.1    42   13.5   278    25.0   742.4    0.00 
 293   10:50   0.68   56.2    38   13.0   252    19.7   742.1    0.00 
 293   11:00   0.64   56.3    39   13.8   261    20.9   742.1    0.00 
 293   11:10   0.63   56.2    39   11.9   262    20.9   742.1    0.00 
 293   11:20   0.76   57.5    34   12.6   288    21.5   741.9    0.00 
 293   11:30   0.73   57.8    31   13.7   274    21.5   741.8    0.00 
 293   11:40   0.74   58.0    32   12.9   274    20.9   741.6    0.00 
 293   11:50   0.75   58.2    34   12.0   253    17.9   741.4    0.00 
 293   12:00   0.72   57.8    33   12.5   270    20.3   741.4    0.00 
 293   12:10   0.72   58.5    33   11.8   242    23.3   741.3    0.00 
 293   12:20   0.75   58.7    33   13.6   269    26.8   741.4    0.00 
 293   12:30   0.49   58.1    33   15.6   287    25.6   741.3    0.00 
 293   12:40   0.59   56.4    35   12.1   281    22.1   741.2    0.00 
 293   12:50   0.63   58.5    33   14.7   270    23.3   741.1    0.00 
 293   13:00   0.44   56.6    36   14.1   274    20.9   741.0    0.00 
 293   13:10   0.73   59.2    34   14.4   260    24.5   740.8    0.00 
 293   13:20   0.54   58.6    34   14.8   252    26.2   740.8    0.00 
 293   13:30   0.59   59.3    34   13.2   260    19.7   740.7    0.00 
 293   13:40   0.46   58.2    37   12.1   244    20.9   740.7    0.00 
 293   13:50   0.31   57.1    37   12.8   248    19.7   740.6    0.00 
 293   14:00   0.33   57.0    38   11.1   260    20.9   740.5    0.00 
 293   14:10   0.45   58.1    38   10.8   248    17.9   740.3    0.00 
 293   14:20   0.51   59.1    36   11.8   241    19.7   740.3    0.00 
 293   14:30   0.46   59.7    34   13.4   268    28.0   740.3    0.00 
 293   14:40   0.57   60.2    34   13.9   265    23.3   740.3    0.00 
 293   14:50   0.56   61.0    33   10.0   240    17.9   740.2    0.00 
 293   15:00   0.52   61.1    32   10.9   252    19.7   740.1    0.00 
 293   15:10   0.48   61.6    29   11.0   255    23.3   740.1    0.00 
 293   15:20   0.43   61.7    24   14.2   251    26.2   740.0    0.00 
 293   15:30   0.40   61.3    23   14.8   245    25.6   739.9    0.00 
 293   15:40   0.34   61.7    23   13.1   275    23.9   739.9    0.00 
 293   15:50   0.28   62.0    23   11.9   274    19.1   739.6    0.00 
 293   16:00   0.26   60.8    24   11.7   259    17.3   739.5    0.00 
 293   16:10   0.23   60.6    24   10.2   249    16.7   739.4    0.00 
 293   16:20   0.18   60.4    24   10.5   264    16.7   739.3    0.00 
 293   16:30   0.14   59.2    25   10.3   242    17.9   739.4    0.00 
 293   16:40   0.11   58.1    26    8.3   258    13.1   739.3    0.00 
 293   16:50   0.07   57.8    26    8.8   239    19.1   739.1    0.00 
 293   17:00   0.02   55.7    27    9.0   266    16.1   739.0    0.00 
 293   17:10   0.01   54.4    29    6.6   265    11.9   738.8    0.00 
 293   17:20   0.01   53.3    30    4.4   295    11.3   738.8    0.00 
 293   17:30   0.00   52.4    31    3.7   356     7.2   738.6    0.00 
 293   17:40   0.00   51.9    32    3.7   340     6.0   738.6    0.00 
 293   17:50   0.00   51.1    33    3.6    17     6.6   738.6    0.00 
 293   18:00   0.00   49.5    36    4.3    28     6.0   738.6    0.00 
 293   18:10   0.00   48.2    38    5.0    32     6.6   738.7    0.00 
 293   18:20   0.00   47.8    39    4.9    37     7.2   738.7    0.00 
 293   18:30   0.00   47.6    40    4.9    24     6.6   738.8    0.00 
 293   18:40   0.00   48.0    39    4.9    27     6.6   738.8    0.00 
 293   18:50   0.00   48.0    39    3.9    15     6.0   738.9    0.00 
 293   19:00   0.00   46.9    40    2.6    28     4.8   739.0    0.00 
 293   19:10   0.00   46.2    42    4.8    25     7.2   739.0    0.00 
 293   19:20   0.00   46.6    41    1.6   325     5.4   738.8    0.00 
 293   19:30   0.00   44.2    46    2.4   355     7.8   739.0    0.00 
 293   19:40   0.00   43.1    48    2.7   114     4.8   739.0    0.00 
 293   19:50   0.00   42.0    50    3.3    50     5.4   738.9    0.00 
 293   20:00   0.00   40.0    54    2.8   352     4.8   738.9    0.00 
 293   20:10   0.00   39.6    55    2.8   334     6.0   739.1    0.00 
 293   20:20   0.00   39.6    54    1.9    64     4.8   739.1    0.00 
 293   20:30   0.00   38.2    57    1.6    27     3.0   739.0    0.00 
 293   20:40   0.00   38.7    56    2.3   345     4.2   739.0    0.00 
 293   20:50   0.00   37.8    58    3.4    10     6.6   739.1    0.00 
 293   21:00   0.00   37.4    59    2.4    20     4.8   739.2    0.00 
 293   21:10   0.00   35.4    63    1.5    82     3.6   739.1    0.00 
 293   21:20   0.00   35.9    63    1.0    11     2.4   739.2    0.00 
 293   21:30   0.00   36.4    61    2.1    44     5.4   739.2    0.00 
 293   21:40   0.00   35.7    63    1.0    11     3.6   739.3    0.00 
 293   21:50   0.00   35.8    63    1.4    49     4.8   739.2    0.00 
 293   22:00   0.00   35.8    63    0.8    91     2.4   739.3    0.00 
 293   22:10   0.00   36.0    62    0.9   336     3.0   739.4    0.00 
 293   22:20   0.00   34.8    65    1.9   356     4.8   739.5    0.00 

Return to San Antonio, Valles Caldera graphs page.


Western Regional Climate Center,wrcc@dri.edu